createdAt,value
2018-03-11T00:00:50.867Z,10.25
2018-03-11T00:03:18.734Z,12.15
2018-03-11T00:05:46.602Z,17.35
2018-03-11T00:08:14.397Z,13.10
2018-03-11T00:10:42.235Z,21.50
2018-03-11T00:13:10.102Z,20.58
2018-03-11T00:15:37.867Z,12.20
2018-03-11T00:18:05.736Z,11.00
2018-03-11T00:20:33.601Z,10.95
2018-03-11T00:23:01.476Z,12.95
2018-03-11T00:25:29.336Z,12.23
2018-03-11T00:27:57.202Z,14.80
2018-03-11T00:30:25.072Z,18.42
2018-03-11T00:32:52.937Z,21.60
2018-03-11T00:35:20.804Z,13.95
2018-03-11T00:37:48.673Z,14.07
2018-03-11T00:40:16.540Z,10.70
2018-03-11T00:42:44.406Z,10.20
2018-03-11T00:45:12.274Z,10.80
2018-03-11T00:47:40.141Z,10.80
2018-03-11T00:50:08.010Z,26.48
2018-03-11T00:52:35.876Z,19.20
2018-03-11T00:55:03.743Z,14.10
2018-03-11T00:57:31.610Z,13.32
2018-03-11T00:59:59.477Z,14.73
2018-03-11T01:02:27.345Z,12.40
2018-03-11T01:04:55.212Z,12.48
2018-03-11T01:07:23.080Z,12.20
2018-03-11T01:09:50.947Z,16.23
2018-03-11T01:12:18.814Z,12.15
2018-03-11T01:14:46.682Z,13.52
2018-03-11T01:17:14.550Z,12.60
2018-03-11T01:19:42.417Z,14.02
2018-03-11T01:22:10.284Z,11.60
2018-03-11T01:24:38.151Z,12.90
2018-03-11T01:27:06.018Z,13.00
2018-03-11T01:29:33.886Z,13.77
2018-03-11T01:32:01.754Z,13.43
2018-03-11T01:34:29.621Z,17.90
2018-03-11T01:36:57.488Z,16.05
2018-03-11T01:39:25.356Z,15.77
2018-03-11T01:41:53.223Z,13.62
2018-03-11T01:44:21.090Z,16.80
2018-03-11T01:46:48.958Z,15.05
2018-03-11T01:49:16.825Z,13.32
2018-03-11T01:51:44.692Z,15.38
2018-03-11T01:54:12.560Z,12.82
2018-03-11T01:56:40.426Z,15.30
2018-03-11T01:59:08.295Z,13.55
2018-03-11T02:01:36.173Z,12.68
2018-03-11T02:04:04.029Z,13.30
2018-03-11T02:06:31.895Z,13.00
2018-03-11T02:08:59.763Z,13.40
2018-03-11T02:11:27.630Z,14.15
2018-03-11T02:13:55.434Z,14.15
2018-03-11T02:16:24.082Z,13.70
2018-03-11T02:18:51.948Z,14.57
2018-03-11T02:21:19.817Z,16.83
2018-03-11T02:23:47.684Z,15.25
2018-03-11T02:26:15.553Z,17.60
2018-03-11T02:28:43.420Z,18.20
2018-03-11T02:31:11.286Z,19.52
2018-03-11T02:33:39.155Z,19.58
2018-03-11T02:36:07.020Z,18.02
2018-03-11T02:38:34.889Z,19.27
2018-03-11T02:41:02.758Z,19.95
2018-03-11T02:43:30.624Z,17.70
2018-03-11T02:45:58.490Z,16.00
2018-03-11T02:48:26.356Z,16.80
2018-03-11T02:50:54.227Z,15.93
2018-03-11T02:53:22.096Z,18.00
2018-03-11T02:55:49.911Z,18.10
2018-03-11T02:58:17.724Z,16.77
2018-03-11T03:00:45.591Z,16.00
2018-03-11T03:03:13.458Z,15.18
2018-03-11T03:05:41.326Z,15.13
2018-03-11T03:08:09.193Z,17.70
2018-03-11T03:10:37.061Z,16.02
2018-03-11T03:13:04.929Z,14.30
2018-03-11T03:15:32.795Z,13.93
2018-03-11T03:18:00.663Z,12.20
2018-03-11T03:20:28.530Z,12.77
2018-03-11T03:22:56.397Z,12.85
2018-03-11T03:25:24.264Z,13.07
2018-03-11T03:27:52.131Z,11.43
2018-03-11T03:30:20.000Z,14.13
2018-03-11T03:32:47.867Z,13.32
2018-03-11T03:35:15.733Z,13.15
2018-03-11T03:37:43.601Z,12.93
2018-03-11T03:40:11.468Z,14.13
2018-03-11T03:42:39.335Z,12.70
2018-03-11T03:45:07.213Z,13.45
2018-03-11T03:47:35.073Z,11.25
2018-03-11T03:50:02.937Z,11.65
2018-03-11T03:52:30.804Z,14.20
2018-03-11T03:54:58.673Z,12.10
2018-03-11T03:57:26.539Z,13.73
2018-03-11T03:59:54.407Z,14.65
2018-03-11T04:02:22.275Z,22.42
2018-03-11T04:04:50.141Z,33.05
2018-03-11T04:07:18.010Z,29.73
2018-03-11T04:09:45.876Z,29.80
2018-03-11T04:12:13.744Z,25.98
2018-03-11T04:14:41.611Z,30.70
2018-03-11T04:17:09.477Z,31.05
2018-03-11T04:19:37.346Z,35.17
2018-03-11T04:22:05.213Z,33.33
2018-03-11T04:24:33.080Z,26.40
2018-03-11T04:27:00.948Z,21.40
2018-03-11T04:29:28.815Z,22.85
2018-03-11T04:31:56.683Z,19.02
2018-03-11T04:34:24.550Z,17.08
2018-03-11T04:36:52.418Z,18.73
2018-03-11T04:39:20.284Z,16.67
2018-03-11T04:41:48.152Z,16.37
2018-03-11T04:44:16.018Z,18.77
2018-03-11T04:46:43.887Z,16.87
2018-03-11T04:49:11.753Z,18.20
2018-03-11T04:51:39.621Z,15.77
2018-03-11T04:54:07.488Z,14.43
2018-03-11T04:56:35.356Z,13.73
2018-03-11T04:59:03.224Z,14.73
2018-03-11T05:01:31.090Z,13.93
2018-03-11T05:03:58.957Z,12.73
2018-03-11T05:06:26.750Z,12.85
2018-03-11T05:08:54.590Z,13.75
2018-03-11T05:11:22.457Z,13.15
2018-03-11T05:13:50.327Z,13.35
2018-03-11T05:16:18.192Z,12.30
2018-03-11T05:18:46.059Z,12.37
2018-03-11T05:21:13.926Z,13.38
2018-03-11T05:23:41.794Z,12.50
2018-03-11T05:26:09.661Z,14.43
2018-03-11T05:28:37.528Z,13.07
2018-03-11T05:31:05.396Z,12.85
2018-03-11T05:33:33.264Z,13.27
2018-03-11T05:36:01.847Z,13.68
2018-03-11T05:38:29.714Z,14.82
2018-03-11T05:40:57.582Z,14.32
2018-03-11T05:43:25.449Z,13.45
2018-03-11T05:45:53.320Z,15.00
2018-03-11T05:48:21.185Z,12.90
2018-03-11T05:50:49.052Z,12.05
2018-03-11T05:53:16.919Z,13.40
2018-03-11T05:55:44.787Z,15.05
2018-03-11T05:58:12.652Z,11.38
2018-03-11T06:00:40.521Z,12.82
2018-03-11T06:03:08.388Z,11.73
2018-03-11T06:05:36.254Z,11.77
2018-03-11T06:08:04.122Z,12.13
2018-03-11T06:10:32.053Z,11.82
2018-03-11T06:13:00.573Z,9.10
2018-03-11T06:15:28.440Z,10.77
2018-03-11T06:17:56.310Z,11.70
2018-03-11T06:20:24.102Z,11.70
2018-03-11T06:22:51.941Z,13.07
2018-03-11T06:25:19.807Z,10.80
2018-03-11T06:27:47.684Z,13.50
2018-03-11T06:30:15.542Z,12.10
2018-03-11T06:32:43.409Z,11.88
2018-03-11T06:35:11.277Z,13.15
2018-03-11T06:37:39.151Z,13.00
2018-03-11T06:40:09.497Z,12.93
2018-03-11T06:42:40.061Z,12.73
2018-03-11T06:45:11.202Z,12.20
2018-03-11T06:47:41.302Z,15.50
2018-03-11T06:50:10.915Z,12.95
2018-03-11T06:55:31.137Z,14.73
2018-03-11T06:58:01.768Z,14.73
2018-03-11T07:00:32.007Z,15.00
2018-03-11T07:03:01.673Z,15.98
2018-03-11T07:05:30.826Z,16.48
2018-03-11T07:07:58.642Z,15.35
2018-03-11T07:10:27.295Z,16.08
2018-03-11T07:12:55.162Z,16.77
2018-03-11T07:15:23.029Z,14.35
2018-03-11T07:17:50.826Z,13.20
2018-03-11T07:20:18.661Z,12.73
2018-03-11T07:22:46.529Z,13.25
2018-03-11T07:25:14.396Z,13.48
2018-03-11T07:27:42.258Z,11.00
2018-03-11T07:30:10.131Z,10.85
2018-03-11T07:32:37.997Z,10.90
2018-03-11T07:35:05.866Z,11.40
2018-03-11T07:37:33.733Z,12.02
2018-03-11T07:40:01.609Z,11.90
2018-03-11T07:42:29.468Z,12.70
2018-03-11T07:44:57.437Z,12.60
2018-03-11T07:47:25.305Z,12.30
2018-03-11T07:49:53.376Z,11.85
2018-03-11T07:52:21.347Z,12.70
2018-03-11T07:54:49.215Z,11.93
2018-03-11T07:57:17.573Z,12.95
2018-03-11T07:59:45.566Z,13.30
2018-03-11T08:02:13.430Z,13.60
2018-03-11T08:04:41.298Z,14.15
2018-03-11T08:07:09.166Z,14.05
2018-03-11T08:09:37.032Z,13.77
2018-03-11T08:12:04.899Z,14.25
2018-03-11T08:14:32.865Z,14.43
2018-03-11T08:17:00.746Z,13.60
2018-03-11T08:19:28.603Z,14.30
2018-03-11T08:21:56.471Z,13.05
2018-03-11T08:24:24.338Z,13.70
2018-03-11T08:26:52.211Z,14.90
2018-03-11T08:29:19.938Z,14.55
2018-03-11T08:31:47.736Z,14.40
2018-03-11T08:34:15.605Z,13.18
2018-03-11T08:36:43.368Z,13.55
2018-03-11T08:39:11.236Z,13.00
2018-03-11T08:41:39.102Z,12.07
2018-03-11T08:44:06.970Z,12.60
2018-03-11T08:46:34.837Z,13.07
2018-03-11T08:49:02.910Z,14.57
2018-03-11T08:51:30.809Z,14.23
2018-03-11T08:53:59.360Z,14.60
2018-03-11T08:56:27.227Z,14.90
2018-03-11T08:58:58.159Z,15.00
2018-03-11T09:01:26.958Z,14.82
2018-03-11T09:03:54.925Z,14.50
2018-03-11T09:06:22.796Z,13.73
2018-03-11T09:08:50.661Z,13.32
2018-03-11T09:11:18.528Z,13.50
2018-03-11T09:13:46.394Z,13.90
2018-03-11T09:16:14.262Z,14.00
2018-03-11T09:18:43.050Z,13.80
2018-03-11T09:21:11.808Z,14.02
2018-03-11T09:23:39.713Z,13.73
2018-03-11T09:26:07.506Z,14.20
2018-03-11T09:28:36.159Z,14.90
2018-03-11T09:31:04.026Z,14.70
2018-03-11T09:33:31.902Z,14.20
2018-03-11T09:35:59.763Z,14.93
2018-03-11T09:38:27.628Z,14.73
2018-03-11T09:40:55.495Z,14.65
2018-03-11T09:43:23.363Z,13.80
2018-03-11T09:45:51.232Z,13.07
2018-03-11T09:48:19.097Z,13.70
2018-03-11T09:50:46.964Z,12.98
2018-03-11T09:53:14.832Z,13.25
2018-03-11T09:55:42.699Z,14.02
2018-03-11T09:58:10.566Z,14.18
2018-03-11T10:00:38.434Z,14.90
2018-03-11T10:03:06.301Z,13.80
2018-03-11T10:05:34.168Z,13.65
2018-03-11T10:08:02.651Z,14.35
2018-03-11T10:10:30.526Z,15.40
2018-03-11T10:12:58.384Z,14.27
2018-03-11T10:15:26.253Z,15.00
2018-03-11T10:17:54.120Z,13.90
2018-03-11T10:20:21.988Z,13.43
2018-03-11T10:22:49.855Z,14.10
2018-03-11T10:25:17.722Z,13.50
2018-03-11T10:27:45.590Z,14.38
2018-03-11T10:30:13.456Z,16.37
2018-03-11T10:32:41.323Z,15.05
2018-03-11T10:35:09.191Z,15.85
2018-03-11T10:37:37.061Z,15.55
2018-03-11T10:40:05.029Z,15.63
2018-03-11T10:42:32.895Z,16.73
2018-03-11T10:45:00.693Z,15.80
2018-03-11T10:47:29.274Z,15.20
2018-03-11T10:49:57.111Z,15.57
2018-03-11T10:52:24.981Z,17.42
2018-03-11T10:54:52.846Z,15.05
2018-03-11T10:57:20.714Z,14.18
2018-03-11T10:59:48.583Z,14.63
2018-03-11T11:02:19.166Z,15.02
2018-03-11T11:04:52.609Z,13.82
2018-03-11T11:07:20.478Z,13.57
2018-03-11T11:09:48.347Z,14.57
2018-03-11T11:12:16.212Z,14.32
2018-03-11T11:14:44.079Z,12.60
2018-03-11T11:17:11.946Z,13.70
2018-03-11T11:19:40.531Z,13.23
2018-03-11T11:22:08.398Z,12.77
2018-03-11T11:24:36.265Z,13.35
2018-03-11T11:27:04.133Z,14.50
2018-03-11T11:29:31.999Z,15.15
2018-03-11T11:31:59.867Z,14.63
2018-03-11T11:34:27.735Z,15.20
2018-03-11T11:36:55.605Z,14.00
2018-03-11T11:39:23.478Z,14.48
2018-03-11T11:41:51.336Z,12.80
2018-03-11T11:44:19.204Z,12.60
2018-03-11T11:46:47.070Z,13.45
2018-03-11T11:49:14.939Z,12.82
2018-03-11T11:51:42.805Z,12.75
2018-03-11T11:54:10.673Z,12.07
2018-03-11T11:56:38.539Z,12.20
2018-03-11T11:59:06.441Z,12.73
2018-03-11T12:01:35.120Z,13.23
2018-03-11T12:04:02.962Z,11.82
2018-03-11T12:06:30.829Z,12.70
2018-03-11T12:08:58.696Z,13.43
2018-03-11T12:11:26.563Z,13.85
2018-03-11T12:13:54.432Z,13.45
2018-03-11T12:16:22.299Z,13.10
2018-03-11T12:18:50.165Z,12.30
2018-03-11T12:21:18.033Z,13.32
2018-03-11T12:23:45.899Z,13.50
2018-03-11T12:26:13.770Z,13.85
2018-03-11T12:28:41.634Z,14.13
2018-03-11T12:31:09.503Z,13.00
2018-03-11T12:33:37.369Z,13.52
2018-03-11T12:36:05.236Z,13.02
2018-03-11T12:38:33.104Z,14.43
2018-03-11T12:41:01.027Z,13.50
2018-03-11T12:43:29.657Z,12.70
2018-03-11T12:45:57.525Z,14.13
2018-03-11T12:48:25.392Z,13.27
2018-03-11T12:50:53.259Z,12.55
2018-03-11T12:53:21.127Z,13.43
2018-03-11T12:55:48.994Z,12.43
2018-03-11T12:58:16.861Z,13.13
2018-03-11T13:00:45.420Z,13.07
2018-03-11T13:03:13.211Z,13.40
2018-03-11T13:05:41.078Z,13.05
2018-03-11T13:08:08.945Z,12.18
2018-03-11T13:10:36.813Z,11.90
2018-03-11T13:13:04.682Z,14.35
2018-03-11T13:15:32.546Z,13.62
2018-03-11T13:18:00.414Z,14.10
2018-03-11T13:20:40.160Z,12.88
2018-03-11T13:23:08.027Z,12.18
2018-03-11T13:25:35.899Z,12.00
2018-03-11T13:28:15.538Z,11.15
2018-03-11T13:30:43.406Z,10.07
2018-03-11T13:33:23.049Z,9.32
2018-03-11T13:35:50.915Z,10.38
2018-03-11T13:38:30.607Z,11.12
2018-03-11T13:40:59.248Z,9.52
2018-03-11T13:43:27.115Z,10.65
2018-03-11T13:46:07.063Z,10.07
2018-03-11T13:48:34.932Z,8.65
2018-03-11T13:51:03.003Z,8.73
2018-03-11T13:53:42.902Z,8.65
2018-03-11T13:56:11.538Z,7.60
2018-03-11T13:58:45.256Z,6.32
2018-03-11T14:01:13.161Z,6.10
2018-03-11T14:03:41.694Z,5.43
2018-03-11T14:06:09.608Z,5.93
2018-03-11T14:08:38.268Z,5.40
2018-03-11T14:11:06.115Z,4.60
2018-03-11T14:13:33.982Z,3.83
2018-03-11T14:16:01.850Z,2.90
2018-03-11T14:18:29.717Z,3.50
2018-03-11T14:20:57.585Z,2.35
2018-03-11T14:23:25.452Z,2.17
2018-03-11T14:25:53.320Z,3.90
2018-03-11T14:28:21.187Z,3.08
2018-03-11T14:30:49.054Z,2.80
2018-03-11T14:33:17.740Z,2.67
2018-03-11T14:35:45.608Z,2.03
2018-03-11T14:38:13.474Z,3.08
2018-03-11T14:40:41.341Z,2.25
2018-03-11T14:43:09.209Z,2.78
2018-03-11T14:45:37.076Z,4.30
2018-03-11T14:48:04.944Z,2.55
2018-03-11T14:50:33.255Z,3.35
2018-03-11T14:53:01.910Z,3.90
2018-03-11T14:55:29.775Z,4.90
2018-03-11T14:57:57.647Z,4.90
2018-03-11T15:00:25.510Z,5.28
2018-03-11T15:02:53.377Z,5.90
2018-03-11T15:05:21.142Z,6.50
2018-03-11T15:07:49.010Z,6.45
2018-03-11T15:10:16.876Z,6.65
2018-03-11T15:12:44.678Z,5.85
2018-03-11T15:15:13.328Z,5.55
2018-03-11T15:17:41.194Z,5.53
2018-03-11T15:20:09.063Z,6.35
2018-03-11T15:22:36.958Z,6.18
2018-03-11T15:25:05.616Z,5.82
2018-03-11T15:27:33.483Z,5.70
2018-03-11T15:30:01.353Z,6.55
2018-03-11T15:32:29.219Z,6.22
2018-03-11T15:34:57.087Z,5.95
2018-03-11T15:37:24.953Z,6.62
2018-03-11T15:39:52.821Z,6.50
2018-03-11T15:42:20.734Z,5.95
2018-03-11T15:44:49.274Z,6.93
2018-03-11T15:47:17.139Z,6.32
2018-03-11T15:49:45.006Z,7.43
2018-03-11T15:52:12.714Z,6.70
2018-03-11T15:54:41.369Z,7.32
2018-03-11T15:57:09.223Z,7.07
2018-03-11T15:59:37.090Z,7.15
2018-03-11T16:02:04.963Z,7.50
2018-03-11T16:04:32.825Z,7.22
2018-03-11T16:07:00.693Z,7.70
2018-03-11T16:09:28.558Z,8.18
2018-03-11T16:11:56.426Z,8.30
2018-03-11T16:14:24.293Z,7.97
2018-03-11T16:16:52.161Z,12.27
2018-03-11T16:19:20.025Z,11.02
2018-03-11T16:21:47.896Z,9.75
2018-03-11T16:24:28.278Z,9.55
2018-03-11T16:26:44.450Z,12.73
2018-03-11T16:29:12.316Z,10.00
2018-03-11T16:31:40.184Z,9.90
2018-03-11T16:34:08.056Z,9.95
2018-03-11T16:36:35.922Z,10.68
2018-03-11T16:39:03.786Z,11.38
2018-03-11T16:41:31.654Z,10.13
2018-03-11T16:43:59.521Z,10.70
2018-03-11T16:46:27.388Z,10.57
2018-03-11T16:48:55.254Z,11.45
2018-03-11T16:51:23.136Z,10.95
2018-03-11T16:53:50.994Z,9.77
2018-03-11T16:56:18.857Z,10.80
2018-03-11T16:58:46.725Z,10.52
2018-03-11T17:01:14.594Z,11.73
2018-03-11T17:03:42.460Z,11.12
2018-03-11T17:06:10.329Z,12.15
2018-03-11T17:08:38.194Z,12.57
2018-03-11T17:11:06.061Z,11.40
2018-03-11T17:13:33.928Z,11.85
2018-03-11T17:16:01.796Z,12.60
2018-03-11T17:18:29.663Z,14.20
2018-03-11T17:20:57.530Z,12.90
2018-03-11T17:23:25.397Z,12.98
2018-03-11T17:25:53.264Z,12.05
2018-03-11T17:28:21.132Z,14.38
2018-03-11T17:30:48.999Z,15.00
2018-03-11T17:33:16.867Z,13.80
2018-03-11T17:35:44.734Z,13.50
2018-03-11T17:38:12.600Z,12.45
2018-03-11T17:40:43.161Z,12.30
2018-03-11T17:43:10.998Z,13.00
2018-03-11T17:45:38.882Z,13.02
2018-03-11T17:48:06.733Z,11.98
2018-03-11T17:50:34.601Z,11.85
2018-03-11T17:53:02.467Z,12.30
2018-03-11T17:55:30.335Z,10.85
2018-03-11T17:57:58.201Z,11.43
2018-03-11T18:00:26.069Z,10.50
2018-03-11T18:02:53.937Z,10.30
2018-03-11T18:05:21.804Z,10.10
2018-03-11T18:07:49.671Z,10.48
2018-03-11T18:10:17.540Z,10.00
2018-03-11T18:12:45.406Z,9.00
2018-03-11T18:15:13.273Z,10.15
2018-03-11T18:17:41.142Z,9.60
2018-03-11T18:20:09.008Z,10.40
2018-03-11T18:22:36.876Z,9.35
2018-03-11T18:25:04.743Z,8.27
2018-03-11T18:27:32.610Z,9.25
2018-03-11T18:30:00.477Z,8.80
2018-03-11T18:32:28.344Z,8.23
2018-03-11T18:34:56.212Z,8.20
2018-03-11T18:37:24.121Z,8.82
2018-03-11T18:39:52.766Z,9.00
2018-03-11T18:42:21.455Z,8.82
2018-03-11T18:44:49.319Z,8.80
2018-03-11T18:47:17.187Z,9.13
2018-03-11T18:49:45.054Z,8.55
2018-03-11T18:52:12.931Z,8.73
2018-03-11T18:54:40.788Z,9.30
2018-03-11T18:57:08.657Z,9.38
2018-03-11T18:59:36.524Z,9.40
2018-03-11T19:02:04.391Z,8.30
2018-03-11T19:04:32.258Z,9.30
2018-03-11T19:07:00.125Z,9.63
2018-03-11T19:09:27.993Z,8.60
2018-03-11T19:11:55.859Z,8.82
2018-03-11T19:14:23.727Z,7.65
2018-03-11T19:16:51.595Z,8.52
2018-03-11T19:19:19.461Z,9.73
2018-03-11T19:21:47.329Z,8.43
2018-03-11T19:24:15.196Z,8.35
2018-03-11T19:26:43.064Z,8.50
2018-03-11T19:29:10.935Z,9.02
2018-03-11T19:31:39.618Z,8.32
2018-03-11T19:34:07.487Z,9.45
2018-03-11T19:36:35.352Z,11.05
2018-03-11T19:39:03.231Z,10.23
2018-03-11T19:41:31.087Z,11.85
2018-03-11T19:43:58.954Z,10.55
2018-03-11T19:46:26.821Z,8.98
2018-03-11T19:48:54.694Z,9.32
2018-03-11T19:51:22.559Z,11.02
2018-03-11T19:53:50.423Z,10.55
2018-03-11T19:56:18.291Z,9.25
2018-03-11T19:58:46.158Z,8.80
2018-03-11T20:01:14.035Z,8.50
2018-03-11T20:03:41.892Z,9.93
2018-03-11T20:06:09.760Z,8.93
2018-03-11T20:08:37.627Z,8.57
2018-03-11T20:11:05.499Z,9.38
2018-03-11T20:13:33.420Z,12.35
2018-03-11T20:16:02.048Z,11.70
2018-03-11T20:18:29.917Z,10.75
2018-03-11T20:20:57.727Z,8.98
2018-03-11T20:23:26.368Z,8.88
2018-03-11T20:25:54.235Z,9.05
2018-03-11T20:28:22.102Z,8.20
2018-03-11T20:30:49.969Z,9.52
2018-03-11T20:33:17.836Z,9.93
2018-03-11T20:35:45.633Z,8.90
2018-03-11T20:38:13.469Z,8.15
2018-03-11T20:40:41.336Z,8.80
2018-03-11T20:43:09.204Z,9.35
2018-03-11T20:45:37.086Z,9.10
2018-03-11T20:48:04.941Z,10.70
2018-03-11T20:50:32.838Z,9.98
2018-03-11T20:53:01.492Z,10.88
2018-03-11T20:55:29.258Z,11.43
2018-03-11T20:57:57.125Z,12.07
2018-03-11T21:00:24.993Z,11.27
2018-03-11T21:02:52.858Z,11.20
2018-03-11T21:05:20.727Z,10.43
2018-03-11T21:07:48.594Z,10.63
2018-03-11T21:10:16.461Z,9.15
2018-03-11T21:12:44.329Z,9.00
2018-03-11T21:15:12.195Z,8.20
2018-03-11T21:17:40.066Z,9.23
2018-03-11T21:20:07.934Z,8.48
2018-03-11T21:22:35.725Z,8.60
2018-03-11T21:25:03.563Z,8.88
2018-03-11T21:27:31.328Z,9.10
2018-03-11T21:29:59.194Z,8.50
2018-03-11T21:32:27.061Z,9.02
2018-03-11T21:34:54.930Z,9.07
2018-03-11T21:37:22.797Z,9.13
2018-03-11T21:39:50.663Z,8.23
2018-03-11T21:42:18.531Z,9.70
2018-03-11T21:44:46.397Z,8.30
2018-03-11T21:47:14.266Z,8.00
2018-03-11T21:49:42.150Z,7.75
2018-03-11T21:52:10.003Z,8.00
2018-03-11T21:54:37.868Z,8.25
2018-03-11T21:57:05.738Z,7.35
2018-03-11T21:59:33.603Z,7.60
2018-03-11T22:02:01.470Z,7.70
2018-03-11T22:04:29.337Z,6.85
2018-03-11T22:06:57.205Z,6.93
2018-03-11T22:09:25.072Z,6.82
2018-03-11T22:11:52.870Z,7.35
2018-03-11T22:14:21.421Z,7.70
2018-03-11T22:16:49.287Z,7.75
2018-03-11T22:19:17.155Z,6.93
2018-03-11T22:21:45.022Z,6.10
2018-03-11T22:24:12.889Z,6.75
2018-03-11T22:26:40.758Z,8.05
2018-03-11T22:29:08.632Z,7.37
2018-03-11T22:31:36.491Z,7.60
2018-03-11T22:34:04.359Z,8.10
2018-03-11T22:36:32.124Z,7.03
2018-03-11T22:38:59.991Z,8.00
2018-03-11T22:41:27.860Z,8.15
2018-03-11T22:43:55.725Z,7.50
2018-03-11T22:46:23.595Z,7.28
2018-03-11T22:48:51.461Z,6.90
2018-03-11T22:51:19.329Z,7.35
2018-03-11T22:53:47.196Z,8.10
2018-03-11T22:56:15.062Z,7.45
2018-03-11T22:58:42.931Z,7.80
2018-03-11T23:01:10.800Z,7.35
2018-03-11T23:03:38.665Z,6.90
2018-03-11T23:06:06.532Z,6.75
2018-03-11T23:08:34.400Z,7.43
2018-03-11T23:11:02.267Z,7.75
2018-03-11T23:13:30.134Z,7.62
2018-03-11T23:15:58.001Z,7.82
2018-03-11T23:18:25.868Z,6.93
2018-03-11T23:20:53.736Z,7.15
2018-03-11T23:23:21.603Z,6.95
2018-03-11T23:25:49.471Z,7.65
2018-03-11T23:28:17.338Z,7.65
2018-03-11T23:30:45.205Z,7.90
2018-03-11T23:33:13.892Z,8.10
2018-03-11T23:35:41.759Z,6.95
2018-03-11T23:38:09.631Z,7.78
2018-03-11T23:40:37.493Z,7.07
2018-03-11T23:43:05.360Z,7.10
2018-03-11T23:45:33.228Z,9.18
2018-03-11T23:48:01.095Z,6.30
2018-03-11T23:50:28.964Z,6.12
2018-03-11T23:52:56.830Z,6.37
2018-03-11T23:55:24.701Z,5.62
2018-03-11T23:57:52.564Z,6.07
